createdAt,value
2022-12-01T00:00:36.565Z,9.00
2022-12-01T00:03:04.723Z,10.23
2022-12-01T00:05:32.459Z,9.48
2022-12-01T00:08:00.063Z,8.98
2022-12-01T00:10:28.477Z,11.18
2022-12-01T00:12:56.923Z,9.20
2022-12-01T00:15:26.880Z,9.27
2022-12-01T00:17:54.477Z,8.48
2022-12-01T00:20:25.034Z,8.40
2022-12-01T00:22:52.759Z,8.75
2022-12-01T00:25:20.716Z,8.57
2022-12-01T00:27:49.963Z,9.05
2022-12-01T00:30:18.561Z,7.55
2022-12-01T00:32:46.485Z,8.65
2022-12-01T00:35:14.818Z,9.93
2022-12-01T00:37:42.432Z,9.05
2022-12-01T00:40:10.957Z,8.57
2022-12-01T00:42:38.603Z,8.57
2022-12-01T00:45:06.940Z,8.70
2022-12-01T00:47:34.633Z,8.20
2022-12-01T00:50:02.442Z,8.77
2022-12-01T00:52:30.042Z,9.48
2022-12-01T00:54:57.688Z,8.93
2022-12-01T00:57:25.340Z,9.52
2022-12-01T00:59:52.854Z,9.15
2022-12-01T01:02:20.489Z,9.82
2022-12-01T01:04:48.115Z,9.10
2022-12-01T01:07:16.256Z,8.70
2022-12-01T01:09:43.838Z,9.75
2022-12-01T01:12:11.384Z,10.52
2022-12-01T01:14:38.983Z,8.38
2022-12-01T01:17:06.521Z,8.52
2022-12-01T01:19:34.125Z,9.65
2022-12-01T01:22:01.603Z,8.98
2022-12-01T01:24:29.265Z,8.73
2022-12-01T01:26:56.842Z,9.07
2022-12-01T01:29:24.427Z,9.15
2022-12-01T01:31:52.007Z,8.38
2022-12-01T01:34:19.595Z,8.15
2022-12-01T01:36:47.181Z,9.32
2022-12-01T01:39:14.872Z,9.70
2022-12-01T01:41:42.829Z,9.65
2022-12-01T01:44:29.332Z,10.13
2022-12-01T01:46:56.861Z,9.80
2022-12-01T01:49:24.366Z,9.95
2022-12-01T01:51:55.215Z,10.75
2022-12-01T01:54:22.750Z,10.02
2022-12-01T01:56:51.032Z,9.40
2022-12-01T01:59:23.290Z,9.65
2022-12-01T02:01:53.559Z,10.63
2022-12-01T02:04:21.531Z,9.27
2022-12-01T02:06:49.217Z,10.32
2022-12-01T02:09:16.771Z,9.65
2022-12-01T02:12:02.372Z,10.18
2022-12-01T02:14:32.667Z,10.48
2022-12-01T02:17:05.080Z,9.83
2022-12-01T02:19:46.506Z,9.85
2022-12-01T02:22:23.391Z,10.48
2022-12-01T02:25:08.319Z,10.45
2022-12-01T02:27:54.312Z,9.68
2022-12-01T02:30:27.832Z,10.70
2022-12-01T02:33:14.221Z,9.73
2022-12-01T02:35:56.583Z,10.25
2022-12-01T02:38:29.149Z,10.38
2022-12-01T02:41:10.198Z,11.43
2022-12-01T02:43:53.905Z,9.90
2022-12-01T02:46:24.693Z,10.77
2022-12-01T02:48:53.946Z,10.85
2022-12-01T02:51:24.587Z,11.23
2022-12-01T02:53:52.400Z,11.77
2022-12-01T02:56:21.740Z,10.88
2022-12-01T02:58:49.375Z,11.77
2022-12-01T03:01:19.833Z,10.15
2022-12-01T03:03:52.317Z,10.88
2022-12-01T03:06:22.558Z,10.60
2022-12-01T03:08:58.390Z,10.57
2022-12-01T03:11:30.977Z,11.13
2022-12-01T03:14:04.545Z,11.57
2022-12-01T03:16:50.803Z,11.82
2022-12-01T03:19:18.278Z,11.82
2022-12-01T03:21:53.398Z,12.98
2022-12-01T03:24:23.309Z,11.57
2022-12-01T03:26:59.617Z,11.98
2022-12-01T03:29:43.093Z,11.23
2022-12-01T03:32:14.926Z,11.77
2022-12-01T03:34:46.276Z,11.18
2022-12-01T03:37:27.251Z,12.93
2022-12-01T03:40:00.266Z,13.20
2022-12-01T03:42:30.797Z,11.27
2022-12-01T03:45:01.287Z,11.90
2022-12-01T03:47:32.345Z,13.55
2022-12-01T03:50:00.431Z,12.25
2022-12-01T03:52:30.803Z,11.80
2022-12-01T03:55:11.970Z,11.57
2022-12-01T03:57:39.632Z,12.05
2022-12-01T04:00:08.056Z,12.73
2022-12-01T04:02:40.295Z,12.30
2022-12-01T04:05:09.272Z,11.90
2022-12-01T04:07:40.155Z,12.35
2022-12-01T04:10:08.492Z,12.27
2022-12-01T04:12:36.187Z,12.40
2022-12-01T04:15:14.452Z,12.40
2022-12-01T04:17:45.900Z,12.15
2022-12-01T04:20:15.453Z,13.18
2022-12-01T04:22:43.016Z,13.55
2022-12-01T04:25:11.144Z,13.57
2022-12-01T04:27:38.826Z,12.95
2022-12-01T04:30:07.647Z,12.52
2022-12-01T04:32:39.122Z,13.90
2022-12-01T04:35:07.209Z,12.60
2022-12-01T04:37:34.798Z,12.25
2022-12-01T04:40:02.339Z,13.68
2022-12-01T04:42:29.949Z,13.77
2022-12-01T04:44:57.432Z,12.63
2022-12-01T04:47:24.937Z,13.93
2022-12-01T04:49:52.516Z,11.90
2022-12-01T04:52:20.003Z,12.70
2022-12-01T04:54:47.471Z,14.07
2022-12-01T04:57:14.953Z,12.68
2022-12-01T04:59:42.861Z,13.63
2022-12-01T05:02:10.558Z,13.65
2022-12-01T05:04:41.264Z,13.55
2022-12-01T05:07:08.976Z,14.07
2022-12-01T05:09:36.518Z,12.38
2022-12-01T05:12:04.115Z,13.55
2022-12-01T05:14:31.556Z,15.05
2022-12-01T05:17:00.343Z,14.20
2022-12-01T05:19:46.593Z,13.10
2022-12-01T05:22:14.215Z,13.48
2022-12-01T05:24:41.816Z,14.35
2022-12-01T05:27:09.290Z,14.45
2022-12-01T05:29:36.916Z,12.90
2022-12-01T05:32:04.771Z,13.35
2022-12-01T05:34:32.427Z,13.80
2022-12-01T05:36:59.932Z,13.18
2022-12-01T05:39:27.589Z,13.45
2022-12-01T05:41:55.145Z,13.40
2022-12-01T05:44:22.743Z,14.77
2022-12-01T05:46:50.273Z,13.40
2022-12-01T05:49:17.839Z,14.13
2022-12-01T05:51:45.401Z,12.68
2022-12-01T05:54:12.934Z,13.57
2022-12-01T05:56:40.444Z,13.55
2022-12-01T05:59:07.980Z,14.75
2022-12-01T06:01:35.518Z,13.98
2022-12-01T06:04:03.658Z,13.43
2022-12-01T06:06:31.220Z,14.13
2022-12-01T06:08:58.664Z,14.52
2022-12-01T06:11:26.187Z,14.00
2022-12-01T06:13:53.706Z,13.77
2022-12-01T06:16:21.324Z,14.88
2022-12-01T06:18:48.922Z,14.18
2022-12-01T06:21:16.462Z,15.15
2022-12-01T06:23:43.947Z,15.00
2022-12-01T06:26:11.441Z,15.27
2022-12-01T06:28:38.917Z,14.73
2022-12-01T06:31:06.495Z,13.82
2022-12-01T06:33:34.115Z,14.38
2022-12-01T06:36:06.773Z,14.25
2022-12-01T06:38:35.191Z,15.35
2022-12-01T06:41:02.841Z,16.88
2022-12-01T06:43:30.872Z,14.52
2022-12-01T06:46:01.928Z,15.18
2022-12-01T06:48:30.458Z,15.40
2022-12-01T06:50:58.566Z,15.98
2022-12-01T06:53:27.350Z,14.85
2022-12-01T06:55:55.228Z,14.55
2022-12-01T06:58:23.291Z,13.65
2022-12-01T07:00:52.370Z,15.27
2022-12-01T07:03:20.165Z,13.40
2022-12-01T07:05:55.681Z,14.35
2022-12-01T07:08:23.190Z,15.25
2022-12-01T07:10:57.803Z,12.07
2022-12-01T07:13:30.089Z,12.82
2022-12-01T07:16:03.100Z,12.48
2022-12-01T07:18:31.360Z,12.10
2022-12-01T07:21:02.375Z,11.73
2022-12-01T07:23:30.277Z,11.98
2022-12-01T07:26:00.764Z,12.60
2022-12-01T07:28:28.839Z,11.63
2022-12-01T07:31:03.756Z,11.77
2022-12-01T07:33:31.715Z,10.90
2022-12-01T07:35:59.492Z,11.27
2022-12-01T07:38:30.656Z,16.50
2022-12-01T07:43:25.646Z,15.63
2022-12-01T07:45:53.262Z,19.33
2022-12-01T07:48:20.983Z,18.77
2022-12-01T07:50:48.547Z,16.38
2022-12-01T07:53:16.171Z,17.83
2022-12-01T07:55:49.511Z,14.25
2022-12-01T07:58:17.727Z,19.08
2022-12-01T08:00:45.250Z,14.88
2022-12-01T08:03:12.747Z,13.30
2022-12-01T08:05:40.383Z,15.00
2022-12-01T08:08:08.075Z,14.85
2022-12-01T08:10:36.185Z,12.63
2022-12-01T08:13:03.809Z,12.82
2022-12-01T08:15:31.336Z,12.05
2022-12-01T08:18:01.248Z,13.15
2022-12-01T08:20:28.853Z,12.82
2022-12-01T08:22:56.472Z,14.40
2022-12-01T08:25:24.218Z,13.10
2022-12-01T08:27:52.030Z,11.73
2022-12-01T08:30:19.759Z,13.27
2022-12-01T08:32:47.299Z,12.25
2022-12-01T08:35:15.403Z,13.52
2022-12-01T08:37:42.970Z,13.38
2022-12-01T08:40:10.743Z,13.05
2022-12-01T08:42:38.452Z,14.23
2022-12-01T08:45:06.231Z,15.38
2022-12-01T08:47:33.813Z,12.40
2022-12-01T08:50:01.450Z,12.90
2022-12-01T08:52:32.239Z,13.23
2022-12-01T08:55:00.097Z,15.02
2022-12-01T08:57:29.788Z,14.05
2022-12-01T08:59:57.441Z,15.73
2022-12-01T09:02:25.249Z,15.73
2022-12-01T09:04:52.824Z,14.77
2022-12-01T09:07:26.011Z,21.05
2022-12-01T09:09:54.025Z,14.45
2022-12-01T09:12:22.184Z,14.90
2022-12-01T09:14:49.836Z,14.07
2022-12-01T09:17:18.325Z,12.18
2022-12-01T09:19:45.885Z,13.77
2022-12-01T09:22:13.465Z,12.65
2022-12-01T09:24:41.075Z,21.85
2022-12-01T09:27:09.957Z,13.93
2022-12-01T09:29:37.459Z,12.90
2022-12-01T09:32:04.936Z,15.00
2022-12-01T09:34:32.467Z,12.00
2022-12-01T09:37:00.260Z,14.50
2022-12-01T09:39:29.670Z,12.15
2022-12-01T09:42:09.542Z,14.02
2022-12-01T09:44:40.237Z,14.10
2022-12-01T09:47:12.455Z,14.55
2022-12-01T09:49:40.027Z,13.25
2022-12-01T09:52:11.866Z,15.85
2022-12-01T09:54:41.081Z,15.18
2022-12-01T09:57:15.789Z,14.23
2022-12-01T09:59:43.474Z,13.68
2022-12-01T10:02:23.251Z,13.50
2022-12-01T10:04:52.264Z,14.15
2022-12-01T10:07:34.287Z,13.05
2022-12-01T10:10:03.944Z,13.30
2022-12-01T10:12:33.553Z,14.63
2022-12-01T10:15:16.701Z,14.45
2022-12-01T10:17:53.974Z,15.18
2022-12-01T10:20:28.869Z,14.02
2022-12-01T10:23:18.197Z,15.43
2022-12-01T10:25:49.322Z,17.75
2022-12-01T10:28:16.879Z,16.10
2022-12-01T10:30:52.218Z,14.13
2022-12-01T10:33:27.199Z,14.63
2022-12-01T10:35:54.906Z,14.85
2022-12-01T10:38:30.169Z,14.40
2022-12-01T10:41:00.725Z,15.20
2022-12-01T10:43:42.764Z,15.50
2022-12-01T10:46:28.777Z,13.82
2022-12-01T10:48:57.683Z,14.80
2022-12-01T10:51:25.720Z,15.80
2022-12-01T10:54:11.637Z,14.63
2022-12-01T10:56:43.717Z,15.73
2022-12-01T10:59:37.499Z,15.57
2022-12-01T11:02:06.568Z,13.63
2022-12-01T11:04:45.410Z,13.93
2022-12-01T11:07:22.828Z,14.45
2022-12-01T11:10:16.974Z,14.63
2022-12-01T11:12:46.316Z,13.02
2022-12-01T11:15:19.508Z,14.63
2022-12-01T11:17:47.004Z,15.00
2022-12-01T11:20:26.677Z,15.48
2022-12-01T11:23:15.252Z,17.63
2022-12-01T11:25:43.016Z,15.65
2022-12-01T11:28:19.996Z,16.83
2022-12-01T11:30:51.211Z,14.95
2022-12-01T11:33:21.302Z,14.43
2022-12-01T11:35:50.335Z,15.25
2022-12-01T11:38:29.923Z,16.23
2022-12-01T11:40:58.755Z,16.00
2022-12-01T11:43:30.178Z,16.38
2022-12-01T11:45:59.255Z,15.88
2022-12-01T11:48:29.151Z,14.40
2022-12-01T11:51:01.649Z,14.68
2022-12-01T11:53:29.119Z,14.60
2022-12-01T11:56:15.001Z,15.35
2022-12-01T11:58:43.654Z,14.52
2022-12-01T12:01:30.207Z,15.70
2022-12-01T12:04:09.891Z,13.90
2022-12-01T12:06:46.463Z,15.23
2022-12-01T12:09:14.157Z,15.05
2022-12-01T12:11:50.161Z,15.40
2022-12-01T12:14:42.235Z,13.77
2022-12-01T12:17:20.392Z,14.40
2022-12-01T12:20:08.514Z,15.63
2022-12-01T12:22:48.606Z,14.38
2022-12-01T12:25:23.362Z,14.98
2022-12-01T12:28:20.242Z,13.65
2022-12-01T12:30:58.837Z,14.70
2022-12-01T12:33:32.055Z,15.25
2022-12-01T12:36:05.749Z,15.35
2022-12-01T12:38:41.087Z,15.15
2022-12-01T12:41:17.531Z,15.20
2022-12-01T12:44:03.496Z,16.85
2022-12-01T12:46:53.290Z,15.70
2022-12-01T12:49:35.903Z,17.58
2022-12-01T12:52:33.324Z,16.08
2022-12-01T12:55:20.587Z,17.77
2022-12-01T12:58:11.246Z,17.23
2022-12-01T13:00:43.049Z,16.17
2022-12-01T13:03:22.870Z,18.17
2022-12-01T13:05:53.413Z,24.92
2022-12-01T13:08:28.520Z,16.50
2022-12-01T13:11:08.590Z,17.10
2022-12-01T13:13:48.393Z,16.65
2022-12-01T13:16:17.730Z,16.40
2022-12-01T13:18:48.189Z,17.05
2022-12-01T13:21:20.556Z,16.25
2022-12-01T13:23:49.145Z,15.27
2022-12-01T13:26:17.756Z,15.65
2022-12-01T13:28:47.750Z,16.33
2022-12-01T13:31:16.670Z,15.73
2022-12-01T13:33:58.671Z,16.13
2022-12-01T13:39:22.306Z,15.40
2022-12-01T13:42:09.539Z,16.02
2022-12-01T13:44:40.219Z,16.48
2022-12-01T13:47:10.618Z,16.77
2022-12-01T13:49:40.691Z,16.83
2022-12-01T13:52:25.735Z,15.25
2022-12-01T13:55:08.602Z,16.10
2022-12-01T13:57:36.178Z,16.10
2022-12-01T14:00:23.611Z,15.40
2022-12-01T14:03:10.309Z,15.48
2022-12-01T14:05:40.896Z,15.90
2022-12-01T14:08:27.810Z,15.48
2022-12-01T14:11:06.480Z,16.52
2022-12-01T14:13:45.962Z,16.48
2022-12-01T14:16:13.603Z,17.10
2022-12-01T14:18:43.878Z,15.85
2022-12-01T14:21:14.062Z,16.17
2022-12-01T14:24:01.303Z,16.83
2022-12-01T14:26:31.998Z,15.52
2022-12-01T14:29:02.673Z,15.05
2022-12-01T14:31:33.389Z,16.52
2022-12-01T14:34:19.912Z,17.63
2022-12-01T14:36:53.620Z,18.85
2022-12-01T14:39:26.658Z,18.15
2022-12-01T14:41:56.935Z,17.98
2022-12-01T14:44:48.194Z,19.47
2022-12-01T14:47:30.341Z,17.60
2022-12-01T14:50:13.831Z,17.35
2022-12-01T14:52:41.538Z,17.70
2022-12-01T14:55:18.352Z,16.95
2022-12-01T14:57:48.916Z,16.02
2022-12-01T15:00:17.044Z,14.68
2022-12-01T15:02:47.589Z,15.70
2022-12-01T15:05:16.924Z,15.00
2022-12-01T15:07:56.261Z,14.93
2022-12-01T15:10:37.757Z,15.30
2022-12-01T15:13:23.109Z,16.13
2022-12-01T15:15:54.066Z,16.85
2022-12-01T15:18:30.655Z,14.45
2022-12-01T15:21:16.416Z,15.82
2022-12-01T15:23:53.275Z,15.80
2022-12-01T15:26:21.506Z,15.52
2022-12-01T15:28:49.356Z,15.32
2022-12-01T15:31:17.146Z,15.40
2022-12-01T15:33:49.331Z,16.15
2022-12-01T15:36:17.181Z,16.10
2022-12-01T15:38:46.592Z,15.00
2022-12-01T15:41:29.187Z,17.05
2022-12-01T15:43:58.904Z,14.52
2022-12-01T15:46:31.270Z,14.52
2022-12-01T15:49:17.689Z,15.05
2022-12-01T15:51:45.600Z,16.80
2022-12-01T15:54:24.554Z,15.80
2022-12-01T15:56:53.869Z,15.05
2022-12-01T15:59:33.315Z,15.32
2022-12-01T16:02:06.284Z,15.23
2022-12-01T16:04:35.566Z,14.75
2022-12-01T16:07:05.549Z,16.90
2022-12-01T16:09:39.974Z,16.60
2022-12-01T16:12:07.779Z,15.90
2022-12-01T16:14:40.155Z,15.55
2022-12-01T16:17:17.214Z,15.57
2022-12-01T16:19:47.759Z,15.60
2022-12-01T16:22:28.408Z,15.73
2022-12-01T16:25:03.290Z,14.23
2022-12-01T16:27:31.683Z,14.75
2022-12-01T16:32:59.259Z,14.52
2022-12-01T16:35:34.677Z,15.25
2022-12-01T16:38:20.872Z,13.85
2022-12-01T16:40:56.564Z,16.38
2022-12-01T16:43:25.427Z,16.73
2022-12-01T16:46:03.601Z,15.85
2022-12-01T16:48:31.646Z,16.58
2022-12-01T16:51:04.388Z,14.68
2022-12-01T16:53:32.092Z,16.70
2022-12-01T16:56:01.551Z,16.55
2022-12-01T16:58:29.179Z,15.52
2022-12-01T17:00:57.087Z,14.10
2022-12-01T17:03:26.432Z,14.98
2022-12-01T17:05:54.639Z,14.82
2022-12-01T17:08:22.934Z,16.35
2022-12-01T17:10:51.069Z,16.42
2022-12-01T17:13:19.272Z,15.25
2022-12-01T17:15:48.414Z,15.82
2022-12-01T17:18:17.268Z,16.13
2022-12-01T17:20:45.342Z,15.13
2022-12-01T17:23:13.020Z,16.38
2022-12-01T17:25:43.307Z,16.08
2022-12-01T17:28:10.991Z,14.90
2022-12-01T17:30:38.577Z,14.15
2022-12-01T17:33:09.205Z,16.33
2022-12-01T17:35:38.459Z,17.10
2022-12-01T17:38:06.305Z,16.98
2022-12-01T17:40:36.056Z,17.50
2022-12-01T17:43:04.523Z,15.55
2022-12-01T17:45:32.914Z,16.27
2022-12-01T17:48:01.734Z,17.73
2022-12-01T17:50:29.572Z,17.25
2022-12-01T17:52:57.187Z,16.70
2022-12-01T17:55:24.706Z,16.75
2022-12-01T17:57:55.064Z,15.75
2022-12-01T18:00:30.949Z,17.25
2022-12-01T18:02:58.962Z,17.02
2022-12-01T18:05:26.833Z,19.40
2022-12-01T18:07:54.579Z,17.02
2022-12-01T18:10:22.486Z,17.27
2022-12-01T18:12:58.102Z,18.30
2022-12-01T18:15:31.789Z,16.83
2022-12-01T18:18:02.183Z,16.55
2022-12-01T18:20:31.047Z,15.55
2022-12-01T18:23:01.193Z,16.65
2022-12-01T18:25:28.746Z,14.90
2022-12-01T18:27:58.834Z,17.58
2022-12-01T18:30:26.542Z,17.40
2022-12-01T18:32:54.197Z,16.30
2022-12-01T18:35:21.716Z,16.40
2022-12-01T18:37:49.515Z,18.23
2022-12-01T18:40:18.914Z,16.63
2022-12-01T18:42:47.509Z,17.63
2022-12-01T18:45:21.276Z,16.42
2022-12-01T18:47:49.128Z,16.50
2022-12-01T18:50:17.057Z,16.85
2022-12-01T18:52:44.814Z,16.75
2022-12-01T18:55:14.711Z,17.55
2022-12-01T18:57:42.406Z,16.92
2022-12-01T19:00:10.276Z,15.90
2022-12-01T19:02:37.978Z,16.40
2022-12-01T19:05:06.700Z,18.17
2022-12-01T19:07:34.353Z,17.38
2022-12-01T19:10:04.544Z,17.10
2022-12-01T19:12:36.386Z,18.13
2022-12-01T19:15:07.593Z,16.40
2022-12-01T19:17:35.428Z,17.75
2022-12-01T19:20:04.703Z,17.67
2022-12-01T19:22:32.541Z,16.65
2022-12-01T19:25:00.404Z,17.92
2022-12-01T19:27:30.302Z,18.63
2022-12-01T19:29:58.016Z,16.92
2022-12-01T19:32:25.902Z,17.98
2022-12-01T19:34:53.499Z,18.17
2022-12-01T19:37:21.052Z,18.40
2022-12-01T19:39:48.792Z,18.73
2022-12-01T19:42:16.352Z,18.67
2022-12-01T19:44:43.856Z,17.42
2022-12-01T19:47:11.364Z,17.25
2022-12-01T19:49:38.916Z,17.95
2022-12-01T19:52:06.528Z,17.33
2022-12-01T19:54:35.497Z,19.48
2022-12-01T19:57:03.228Z,16.13
2022-12-01T19:59:30.899Z,18.05
2022-12-01T20:01:58.540Z,19.58
2022-12-01T20:04:26.340Z,18.58
2022-12-01T20:06:54.029Z,17.85
2022-12-01T20:09:22.631Z,19.63
2022-12-01T20:11:50.234Z,17.60
2022-12-01T20:14:18.012Z,19.10
2022-12-01T20:16:45.739Z,20.40
2022-12-01T20:19:13.465Z,20.20
2022-12-01T20:21:43.252Z,16.40
2022-12-01T20:24:12.801Z,20.42
2022-12-01T20:26:42.499Z,20.08
2022-12-01T20:29:17.660Z,19.15
2022-12-01T20:31:46.741Z,20.08
2022-12-01T20:34:18.811Z,19.80
2022-12-01T20:36:46.418Z,19.27
2022-12-01T20:39:14.539Z,19.63
2022-12-01T20:41:42.645Z,18.20
2022-12-01T20:44:11.863Z,18.67
2022-12-01T20:46:41.108Z,19.15
2022-12-01T20:49:08.916Z,18.90
2022-12-01T20:51:36.571Z,18.88
2022-12-01T20:54:27.162Z,17.00
2022-12-01T20:56:53.156Z,19.17
2022-12-01T20:59:20.861Z,19.83
2022-12-01T21:01:48.534Z,19.65
2022-12-01T21:04:16.181Z,20.23
2022-12-01T21:06:43.814Z,19.50
2022-12-01T21:09:12.954Z,19.27
2022-12-01T21:12:04.261Z,18.90
2022-12-01T21:14:37.628Z,19.13
2022-12-01T21:17:25.975Z,19.70
2022-12-01T21:19:57.195Z,19.48
2022-12-01T21:24:52.586Z,18.65
2022-12-01T21:27:20.509Z,18.92
2022-12-01T21:29:49.445Z,19.85
2022-12-01T21:32:18.587Z,18.98
2022-12-01T21:34:49.787Z,20.05
2022-12-01T21:37:22.529Z,20.23
2022-12-01T21:39:53.910Z,19.52
2022-12-01T21:42:22.973Z,19.98
2022-12-01T21:44:51.145Z,20.17
2022-12-01T21:47:23.247Z,20.02
2022-12-01T21:49:52.487Z,20.05
2022-12-01T21:52:22.063Z,21.70
2022-12-01T21:54:50.440Z,20.42
2022-12-01T21:57:30.503Z,20.52
2022-12-01T22:00:18.364Z,18.90
2022-12-01T22:02:49.671Z,21.23
2022-12-01T22:05:36.156Z,18.67
2022-12-01T22:08:12.937Z,19.95
2022-12-01T22:10:59.228Z,21.70
2022-12-01T22:13:40.105Z,20.17
2022-12-01T22:16:11.244Z,20.55
2022-12-01T22:18:40.051Z,21.38
2022-12-01T22:21:23.031Z,22.00
2022-12-01T22:23:56.791Z,20.20
2022-12-01T22:26:25.629Z,20.80
2022-12-01T22:28:54.456Z,22.50
2022-12-01T22:31:24.605Z,21.60
2022-12-01T22:34:01.507Z,19.90
2022-12-01T22:36:31.780Z,20.45
2022-12-01T22:39:02.288Z,22.15
2022-12-01T22:41:30.028Z,20.55
2022-12-01T22:43:59.612Z,19.17
2022-12-01T22:46:30.611Z,20.10
2022-12-01T22:49:03.773Z,21.52
2022-12-01T22:51:31.431Z,20.20
2022-12-01T22:54:20.764Z,20.02
2022-12-01T22:56:54.664Z,19.65
2022-12-01T22:59:24.074Z,21.15
2022-12-01T23:01:56.024Z,20.05
2022-12-01T23:04:34.342Z,22.80
2022-12-01T23:07:08.551Z,18.70
2022-12-01T23:09:38.289Z,20.05
2022-12-01T23:12:11.978Z,21.55
2022-12-01T23:14:42.026Z,20.23
2022-12-01T23:17:14.667Z,20.13
2022-12-01T23:19:42.293Z,20.10
2022-12-01T23:22:10.226Z,19.63
2022-12-01T23:24:38.054Z,21.95
2022-12-01T23:27:06.736Z,19.05
2022-12-01T23:29:35.052Z,20.95
2022-12-01T23:32:02.717Z,20.98
2022-12-01T23:34:30.328Z,21.88
2022-12-01T23:36:57.948Z,21.10
2022-12-01T23:39:30.811Z,18.85
2022-12-01T23:41:58.414Z,19.55
2022-12-01T23:44:38.158Z,21.48
2022-12-01T23:47:10.745Z,19.08
2022-12-01T23:49:39.750Z,21.55
2022-12-01T23:52:11.448Z,21.33
2022-12-01T23:54:39.354Z,21.73
2022-12-01T23:57:25.712Z,22.20
2022-12-01T23:59:59.064Z,20.13
